sensor_id;sensor_type;location;lat;lon;timestamp;P1;durP1;ratioP1;P2;durP2;ratioP2
40959;SDS011;27842;52.272;8.052;2022-08-14T00:00:24;13.38;;;5.78;;
40959;SDS011;27842;52.272;8.052;2022-08-14T00:02:51;15.40;;;5.78;;
40959;SDS011;27842;52.272;8.052;2022-08-14T00:05:17;12.50;;;5.55;;
40959;SDS011;27842;52.272;8.052;2022-08-14T00:07:44;12.57;;;5.82;;
40959;SDS011;27842;52.272;8.052;2022-08-14T00:10:13;13.82;;;5.90;;
40959;SDS011;27842;52.272;8.052;2022-08-14T00:12:42;13.82;;;5.85;;
40959;SDS011;27842;52.272;8.052;2022-08-14T00:15:22;12.65;;;5.82;;
40959;SDS011;27842;52.272;8.052;2022-08-14T00:17:58;14.55;;;6.03;;
40959;SDS011;27842;52.272;8.052;2022-08-14T00:20:25;12.95;;;5.43;;
40959;SDS011;27842;52.272;8.052;2022-08-14T00:22:53;13.45;;;5.28;;
40959;SDS011;27842;52.272;8.052;2022-08-14T00:25:19;17.35;;;6.25;;
40959;SDS011;27842;52.272;8.052;2022-08-14T00:27:44;16.73;;;6.20;;
40959;SDS011;27842;52.272;8.052;2022-08-14T00:30:11;14.07;;;6.13;;
40959;SDS011;27842;52.272;8.052;2022-08-14T00:32:38;15.63;;;6.30;;
40959;SDS011;27842;52.272;8.052;2022-08-14T00:35:04;15.63;;;6.30;;
40959;SDS011;27842;52.272;8.052;2022-08-14T00:37:32;15.40;;;6.07;;
40959;SDS011;27842;52.272;8.052;2022-08-14T00:39:58;16.10;;;6.03;;
40959;SDS011;27842;52.272;8.052;2022-08-14T00:42:25;17.27;;;6.13;;
40959;SDS011;27842;52.272;8.052;2022-08-14T00:44:52;13.43;;;5.82;;
40959;SDS011;27842;52.272;8.052;2022-08-14T00:47:19;15.05;;;5.95;;
40959;SDS011;27842;52.272;8.052;2022-08-14T00:49:48;12.35;;;5.55;;
40959;SDS011;27842;52.272;8.052;2022-08-14T00:52:15;15.45;;;6.20;;
40959;SDS011;27842;52.272;8.052;2022-08-14T00:54:42;12.57;;;5.93;;
40959;SDS011;27842;52.272;8.052;2022-08-14T00:57:08;13.90;;;5.82;;
40959;SDS011;27842;52.272;8.052;2022-08-14T00:59:35;16.10;;;6.90;;
40959;SDS011;27842;52.272;8.052;2022-08-14T01:02:01;14.60;;;6.63;;
40959;SDS011;27842;52.272;8.052;2022-08-14T01:04:28;16.77;;;5.97;;
40959;SDS011;27842;52.272;8.052;2022-08-14T01:09:22;17.13;;;6.30;;
40959;SDS011;27842;52.272;8.052;2022-08-14T01:11:48;15.63;;;6.57;;
40959;SDS011;27842;52.272;8.052;2022-08-14T01:14:15;14.93;;;6.35;;
40959;SDS011;27842;52.272;8.052;2022-08-14T01:16:42;14.73;;;6.20;;
40959;SDS011;27842;52.272;8.052;2022-08-14T01:19:08;14.70;;;6.05;;
40959;SDS011;27842;52.272;8.052;2022-08-14T01:21:53;13.95;;;6.07;;
40959;SDS011;27842;52.272;8.052;2022-08-14T01:24:20;14.30;;;6.53;;
40959;SDS011;27842;52.272;8.052;2022-08-14T01:26:46;14.50;;;6.25;;
40959;SDS011;27842;52.272;8.052;2022-08-14T01:29:11;14.38;;;6.40;;
40959;SDS011;27842;52.272;8.052;2022-08-14T01:31:38;15.43;;;6.53;;
40959;SDS011;27842;52.272;8.052;2022-08-14T01:34:13;15.18;;;6.65;;
40959;SDS011;27842;52.272;8.052;2022-08-14T01:36:39;14.82;;;6.85;;
40959;SDS011;27842;52.272;8.052;2022-08-14T01:39:06;13.32;;;6.93;;
40959;SDS011;27842;52.272;8.052;2022-08-14T01:41:34;13.63;;;6.78;;
40959;SDS011;27842;52.272;8.052;2022-08-14T01:44:01;15.40;;;6.60;;
40959;SDS011;27842;52.272;8.052;2022-08-14T01:46:31;12.70;;;6.00;;
40959;SDS011;27842;52.272;8.052;2022-08-14T01:49:03;15.32;;;6.65;;
40959;SDS011;27842;52.272;8.052;2022-08-14T01:51:33;14.27;;;6.38;;
40959;SDS011;27842;52.272;8.052;2022-08-14T01:54:02;14.60;;;6.72;;
40959;SDS011;27842;52.272;8.052;2022-08-14T01:56:31;16.60;;;6.38;;
40959;SDS011;27842;52.272;8.052;2022-08-14T01:59:18;13.85;;;6.20;;
40959;SDS011;27842;52.272;8.052;2022-08-14T02:01:56;13.13;;;6.20;;
40959;SDS011;27842;52.272;8.052;2022-08-14T02:04:25;12.77;;;6.03;;
40959;SDS011;27842;52.272;8.052;2022-08-14T02:06:54;13.20;;;6.63;;
40959;SDS011;27842;52.272;8.052;2022-08-14T02:09:21;14.27;;;7.15;;
40959;SDS011;27842;52.272;8.052;2022-08-14T02:11:47;15.02;;;6.45;;
40959;SDS011;27842;52.272;8.052;2022-08-14T02:14:14;16.02;;;7.60;;
40959;SDS011;27842;52.272;8.052;2022-08-14T02:16:41;12.95;;;6.25;;
40959;SDS011;27842;52.272;8.052;2022-08-14T02:19:09;13.23;;;7.03;;
40959;SDS011;27842;52.272;8.052;2022-08-14T02:21:40;15.00;;;6.32;;
40959;SDS011;27842;52.272;8.052;2022-08-14T02:24:07;15.40;;;6.67;;
40959;SDS011;27842;52.272;8.052;2022-08-14T02:26:35;14.95;;;6.72;;
40959;SDS011;27842;52.272;8.052;2022-08-14T02:29:08;16.23;;;7.03;;
40959;SDS011;27842;52.272;8.052;2022-08-14T02:31:39;13.10;;;6.32;;
40959;SDS011;27842;52.272;8.052;2022-08-14T02:34:09;13.38;;;6.22;;
40959;SDS011;27842;52.272;8.052;2022-08-14T02:36:43;16.58;;;7.10;;
40959;SDS011;27842;52.272;8.052;2022-08-14T02:39:10;13.80;;;6.75;;
40959;SDS011;27842;52.272;8.052;2022-08-14T02:41:36;15.60;;;7.43;;
40959;SDS011;27842;52.272;8.052;2022-08-14T02:44:03;15.93;;;7.05;;
40959;SDS011;27842;52.272;8.052;2022-08-14T02:46:31;14.80;;;7.00;;
40959;SDS011;27842;52.272;8.052;2022-08-14T02:48:57;14.10;;;6.95;;
40959;SDS011;27842;52.272;8.052;2022-08-14T02:51:23;14.00;;;6.82;;
40959;SDS011;27842;52.272;8.052;2022-08-14T02:53:49;14.18;;;6.72;;
40959;SDS011;27842;52.272;8.052;2022-08-14T02:56:16;13.80;;;6.47;;
40959;SDS011;27842;52.272;8.052;2022-08-14T02:58:44;12.95;;;6.72;;
40959;SDS011;27842;52.272;8.052;2022-08-14T03:01:12;13.60;;;6.63;;
40959;SDS011;27842;52.272;8.052;2022-08-14T03:03:39;14.60;;;6.93;;
40959;SDS011;27842;52.272;8.052;2022-08-14T03:06:06;15.07;;;6.75;;
40959;SDS011;27842;52.272;8.052;2022-08-14T03:08:34;13.50;;;6.18;;
40959;SDS011;27842;52.272;8.052;2022-08-14T03:13:33;14.77;;;6.90;;
40959;SDS011;27842;52.272;8.052;2022-08-14T03:16:01;14.18;;;6.32;;
40959;SDS011;27842;52.272;8.052;2022-08-14T03:18:28;13.02;;;6.80;;
40959;SDS011;27842;52.272;8.052;2022-08-14T03:20:54;12.85;;;6.75;;
40959;SDS011;27842;52.272;8.052;2022-08-14T03:23:19;13.90;;;6.82;;
40959;SDS011;27842;52.272;8.052;2022-08-14T03:25:45;16.88;;;7.05;;
40959;SDS011;27842;52.272;8.052;2022-08-14T03:28:12;14.73;;;6.82;;
40959;SDS011;27842;52.272;8.052;2022-08-14T03:30:38;13.55;;;6.80;;
40959;SDS011;27842;52.272;8.052;2022-08-14T03:33:04;14.20;;;7.03;;
40959;SDS011;27842;52.272;8.052;2022-08-14T03:35:32;14.13;;;7.10;;
40959;SDS011;27842;52.272;8.052;2022-08-14T03:38:04;15.98;;;7.15;;
40959;SDS011;27842;52.272;8.052;2022-08-14T03:40:33;14.50;;;6.82;;
40959;SDS011;27842;52.272;8.052;2022-08-14T03:42:59;13.27;;;6.60;;
40959;SDS011;27842;52.272;8.052;2022-08-14T03:45:29;13.10;;;6.35;;
40959;SDS011;27842;52.272;8.052;2022-08-14T03:47:56;13.90;;;6.75;;
40959;SDS011;27842;52.272;8.052;2022-08-14T03:50:23;14.65;;;6.72;;
40959;SDS011;27842;52.272;8.052;2022-08-14T03:52:48;14.13;;;6.65;;
40959;SDS011;27842;52.272;8.052;2022-08-14T03:55:14;14.70;;;6.88;;
40959;SDS011;27842;52.272;8.052;2022-08-14T03:57:39;14.27;;;6.80;;
40959;SDS011;27842;52.272;8.052;2022-08-14T04:00:07;13.98;;;6.57;;
40959;SDS011;27842;52.272;8.052;2022-08-14T04:02:39;13.35;;;6.47;;
40959;SDS011;27842;52.272;8.052;2022-08-14T04:05:06;13.75;;;6.68;;
40959;SDS011;27842;52.272;8.052;2022-08-14T04:07:33;15.32;;;6.80;;
40959;SDS011;27842;52.272;8.052;2022-08-14T04:09:59;14.05;;;7.07;;
40959;SDS011;27842;52.272;8.052;2022-08-14T04:12:25;15.15;;;7.13;;
40959;SDS011;27842;52.272;8.052;2022-08-14T04:14:51;15.48;;;7.05;;
40959;SDS011;27842;52.272;8.052;2022-08-14T04:17:19;14.25;;;6.95;;
40959;SDS011;27842;52.272;8.052;2022-08-14T04:19:45;13.68;;;6.90;;
40959;SDS011;27842;52.272;8.052;2022-08-14T04:22:11;13.93;;;7.10;;
40959;SDS011;27842;52.272;8.052;2022-08-14T04:24:37;13.80;;;7.10;;
40959;SDS011;27842;52.272;8.052;2022-08-14T04:27:08;14.75;;;6.68;;
40959;SDS011;27842;52.272;8.052;2022-08-14T04:29:36;13.07;;;6.25;;
40959;SDS011;27842;52.272;8.052;2022-08-14T04:32:04;17.23;;;7.00;;
40959;SDS011;27842;52.272;8.052;2022-08-14T04:34:32;14.63;;;7.45;;
40959;SDS011;27842;52.272;8.052;2022-08-14T04:36:59;13.52;;;6.93;;
40959;SDS011;27842;52.272;8.052;2022-08-14T04:39:43;15.85;;;7.30;;
40959;SDS011;27842;52.272;8.052;2022-08-14T04:42:34;15.05;;;7.25;;
40959;SDS011;27842;52.272;8.052;2022-08-14T04:45:19;15.38;;;7.45;;
40959;SDS011;27842;52.272;8.052;2022-08-14T04:47:45;14.88;;;7.65;;
40959;SDS011;27842;52.272;8.052;2022-08-14T04:50:30;14.85;;;7.35;;
40959;SDS011;27842;52.272;8.052;2022-08-14T04:52:55;16.33;;;7.45;;
40959;SDS011;27842;52.272;8.052;2022-08-14T04:55:21;13.25;;;6.80;;
40959;SDS011;27842;52.272;8.052;2022-08-14T04:57:47;16.35;;;7.10;;
40959;SDS011;27842;52.272;8.052;2022-08-14T05:00:13;13.88;;;6.90;;
40959;SDS011;27842;52.272;8.052;2022-08-14T05:02:39;13.18;;;6.88;;
40959;SDS011;27842;52.272;8.052;2022-08-14T05:05:04;14.90;;;6.88;;
40959;SDS011;27842;52.272;8.052;2022-08-14T05:07:31;14.70;;;6.93;;
40959;SDS011;27842;52.272;8.052;2022-08-14T05:09:56;13.88;;;6.65;;
40959;SDS011;27842;52.272;8.052;2022-08-14T05:12:22;14.43;;;6.75;;
40959;SDS011;27842;52.272;8.052;2022-08-14T05:14:48;14.52;;;6.90;;
40959;SDS011;27842;52.272;8.052;2022-08-14T05:17:14;13.10;;;6.65;;
40959;SDS011;27842;52.272;8.052;2022-08-14T05:19:40;15.15;;;6.80;;
40959;SDS011;27842;52.272;8.052;2022-08-14T05:22:05;14.05;;;7.00;;
40959;SDS011;27842;52.272;8.052;2022-08-14T05:24:32;14.50;;;6.80;;
40959;SDS011;27842;52.272;8.052;2022-08-14T05:26:57;13.90;;;7.18;;
40959;SDS011;27842;52.272;8.052;2022-08-14T05:29:24;13.13;;;6.82;;
40959;SDS011;27842;52.272;8.052;2022-08-14T05:31:50;10.38;;;5.90;;
40959;SDS011;27842;52.272;8.052;2022-08-14T05:34:16;14.65;;;6.68;;
40959;SDS011;27842;52.272;8.052;2022-08-14T05:36:41;13.50;;;6.40;;
40959;SDS011;27842;52.272;8.052;2022-08-14T05:39:07;12.18;;;6.43;;
40959;SDS011;27842;52.272;8.052;2022-08-14T05:41:33;13.85;;;6.40;;
40959;SDS011;27842;52.272;8.052;2022-08-14T05:44:05;12.18;;;6.40;;
40959;SDS011;27842;52.272;8.052;2022-08-14T05:46:30;14.10;;;7.13;;
40959;SDS011;27842;52.272;8.052;2022-08-14T05:48:56;15.80;;;6.95;;
40959;SDS011;27842;52.272;8.052;2022-08-14T05:51:23;12.95;;;6.55;;
40959;SDS011;27842;52.272;8.052;2022-08-14T05:53:50;14.32;;;6.35;;
40959;SDS011;27842;52.272;8.052;2022-08-14T05:56:16;15.70;;;6.70;;
40959;SDS011;27842;52.272;8.052;2022-08-14T05:58:41;13.30;;;6.82;;
40959;SDS011;27842;52.272;8.052;2022-08-14T06:01:07;13.65;;;6.50;;
40959;SDS011;27842;52.272;8.052;2022-08-14T06:03:33;13.90;;;6.30;;
40959;SDS011;27842;52.272;8.052;2022-08-14T06:05:59;13.70;;;6.55;;
40959;SDS011;27842;52.272;8.052;2022-08-14T06:08:30;13.45;;;6.60;;
40959;SDS011;27842;52.272;8.052;2022-08-14T06:10:58;14.00;;;6.30;;
40959;SDS011;27842;52.272;8.052;2022-08-14T06:13:28;12.52;;;5.82;;
40959;SDS011;27842;52.272;8.052;2022-08-14T06:15:54;13.40;;;6.55;;
40959;SDS011;27842;52.272;8.052;2022-08-14T06:18:20;13.75;;;6.47;;
40959;SDS011;27842;52.272;8.052;2022-08-14T06:20:45;14.68;;;6.88;;
40959;SDS011;27842;52.272;8.052;2022-08-14T06:23:11;13.57;;;6.30;;
40959;SDS011;27842;52.272;8.052;2022-08-14T06:25:37;14.55;;;6.68;;
40959;SDS011;27842;52.272;8.052;2022-08-14T06:28:02;13.35;;;6.18;;
40959;SDS011;27842;52.272;8.052;2022-08-14T06:30:30;13.05;;;6.78;;
40959;SDS011;27842;52.272;8.052;2022-08-14T06:32:57;13.95;;;6.82;;
40959;SDS011;27842;52.272;8.052;2022-08-14T06:35:23;14.80;;;6.75;;
40959;SDS011;27842;52.272;8.052;2022-08-14T06:40:23;14.75;;;6.72;;
40959;SDS011;27842;52.272;8.052;2022-08-14T06:42:58;14.47;;;6.50;;
40959;SDS011;27842;52.272;8.052;2022-08-14T06:45:25;12.30;;;6.03;;
40959;SDS011;27842;52.272;8.052;2022-08-14T06:47:51;11.95;;;6.43;;
40959;SDS011;27842;52.272;8.052;2022-08-14T06:50:18;12.25;;;6.20;;
40959;SDS011;27842;52.272;8.052;2022-08-14T06:52:45;16.50;;;6.97;;
40959;SDS011;27842;52.272;8.052;2022-08-14T06:55:12;11.82;;;6.57;;
40959;SDS011;27842;52.272;8.052;2022-08-14T06:57:40;12.43;;;6.68;;
40959;SDS011;27842;52.272;8.052;2022-08-14T07:00:10;11.10;;;5.88;;
40959;SDS011;27842;52.272;8.052;2022-08-14T07:02:45;13.05;;;6.32;;
40959;SDS011;27842;52.272;8.052;2022-08-14T07:05:30;12.90;;;6.90;;
40959;SDS011;27842;52.272;8.052;2022-08-14T07:10:44;14.30;;;6.45;;
40959;SDS011;27842;52.272;8.052;2022-08-14T07:13:14;12.18;;;5.88;;
40959;SDS011;27842;52.272;8.052;2022-08-14T07:15:42;12.50;;;6.25;;
40959;SDS011;27842;52.272;8.052;2022-08-14T07:18:11;12.35;;;6.10;;
40959;SDS011;27842;52.272;8.052;2022-08-14T07:20:38;14.70;;;6.05;;
40959;SDS011;27842;52.272;8.052;2022-08-14T07:23:05;11.65;;;5.97;;
40959;SDS011;27842;52.272;8.052;2022-08-14T07:25:32;12.20;;;6.18;;
40959;SDS011;27842;52.272;8.052;2022-08-14T07:27:58;13.70;;;6.68;;
40959;SDS011;27842;52.272;8.052;2022-08-14T07:30:24;11.98;;;5.97;;
40959;SDS011;27842;52.272;8.052;2022-08-14T07:32:50;12.65;;;6.50;;
40959;SDS011;27842;52.272;8.052;2022-08-14T07:35:16;14.07;;;6.32;;
40959;SDS011;27842;52.272;8.052;2022-08-14T07:37:42;13.20;;;6.20;;
40959;SDS011;27842;52.272;8.052;2022-08-14T07:40:11;13.95;;;6.25;;
40959;SDS011;27842;52.272;8.052;2022-08-14T07:42:37;11.73;;;6.03;;
40959;SDS011;27842;52.272;8.052;2022-08-14T07:45:02;14.15;;;6.30;;
40959;SDS011;27842;52.272;8.052;2022-08-14T07:47:28;13.77;;;6.32;;
40959;SDS011;27842;52.272;8.052;2022-08-14T07:50:00;16.00;;;6.57;;
40959;SDS011;27842;52.272;8.052;2022-08-14T07:52:29;11.90;;;6.07;;
40959;SDS011;27842;52.272;8.052;2022-08-14T07:54:55;10.45;;;5.85;;
40959;SDS011;27842;52.272;8.052;2022-08-14T07:57:21;13.13;;;6.45;;
40959;SDS011;27842;52.272;8.052;2022-08-14T07:59:47;15.30;;;6.43;;
40959;SDS011;27842;52.272;8.052;2022-08-14T08:02:13;12.52;;;6.18;;
40959;SDS011;27842;52.272;8.052;2022-08-14T08:04:41;15.10;;;6.72;;
40959;SDS011;27842;52.272;8.052;2022-08-14T08:07:10;12.85;;;6.28;;
40959;SDS011;27842;52.272;8.052;2022-08-14T08:09:36;12.40;;;6.05;;
40959;SDS011;27842;52.272;8.052;2022-08-14T08:12:08;15.75;;;6.43;;
40959;SDS011;27842;52.272;8.052;2022-08-14T08:14:36;11.47;;;5.97;;
40959;SDS011;27842;52.272;8.052;2022-08-14T08:17:02;11.60;;;5.70;;
40959;SDS011;27842;52.272;8.052;2022-08-14T08:19:28;12.93;;;6.30;;
40959;SDS011;27842;52.272;8.052;2022-08-14T08:21:56;13.35;;;6.00;;
40959;SDS011;27842;52.272;8.052;2022-08-14T08:24:22;10.68;;;5.68;;
40959;SDS011;27842;52.272;8.052;2022-08-14T08:26:48;10.57;;;5.60;;
40959;SDS011;27842;52.272;8.052;2022-08-14T08:29:19;12.07;;;6.32;;
40959;SDS011;27842;52.272;8.052;2022-08-14T08:31:46;12.73;;;5.95;;
40959;SDS011;27842;52.272;8.052;2022-08-14T08:34:16;13.90;;;6.75;;
40959;SDS011;27842;52.272;8.052;2022-08-14T08:36:42;11.85;;;6.13;;
40959;SDS011;27842;52.272;8.052;2022-08-14T08:39:08;13.15;;;6.32;;
40959;SDS011;27842;52.272;8.052;2022-08-14T08:41:44;11.75;;;6.20;;
40959;SDS011;27842;52.272;8.052;2022-08-14T08:44:12;11.77;;;5.72;;
40959;SDS011;27842;52.272;8.052;2022-08-14T08:46:38;14.40;;;6.40;;
40959;SDS011;27842;52.272;8.052;2022-08-14T08:49:06;12.45;;;6.20;;
40959;SDS011;27842;52.272;8.052;2022-08-14T08:51:36;11.93;;;5.93;;
40959;SDS011;27842;52.272;8.052;2022-08-14T08:56:33;12.20;;;6.38;;
40959;SDS011;27842;52.272;8.052;2022-08-14T08:59:00;13.32;;;6.15;;
40959;SDS011;27842;52.272;8.052;2022-08-14T09:01:29;14.18;;;6.07;;
40959;SDS011;27842;52.272;8.052;2022-08-14T09:04:02;10.77;;;5.90;;
40959;SDS011;27842;52.272;8.052;2022-08-14T09:06:28;13.95;;;6.15;;
40959;SDS011;27842;52.272;8.052;2022-08-14T09:08:53;12.57;;;6.35;;
40959;SDS011;27842;52.272;8.052;2022-08-14T09:11:19;13.30;;;6.43;;
40959;SDS011;27842;52.272;8.052;2022-08-14T09:13:51;13.70;;;6.78;;
40959;SDS011;27842;52.272;8.052;2022-08-14T09:19:09;12.95;;;6.35;;
40959;SDS011;27842;52.272;8.052;2022-08-14T09:21:34;11.52;;;5.90;;
40959;SDS011;27842;52.272;8.052;2022-08-14T09:24:03;11.68;;;6.13;;
40959;SDS011;27842;52.272;8.052;2022-08-14T09:26:30;13.00;;;5.83;;
40959;SDS011;27842;52.272;8.052;2022-08-14T09:28:56;14.82;;;6.78;;
40959;SDS011;27842;52.272;8.052;2022-08-14T09:31:22;14.93;;;6.38;;
40959;SDS011;27842;52.272;8.052;2022-08-14T09:34:02;12.68;;;6.10;;
40959;SDS011;27842;52.272;8.052;2022-08-14T09:45:34;13.35;;;6.40;;
40959;SDS011;27842;52.272;8.052;2022-08-14T09:48:14;13.60;;;5.90;;
40959;SDS011;27842;52.272;8.052;2022-08-14T09:50:44;13.00;;;6.30;;
40959;SDS011;27842;52.272;8.052;2022-08-14T09:53:29;13.88;;;6.32;;
40959;SDS011;27842;52.272;8.052;2022-08-14T09:56:23;17.52;;;6.75;;
40959;SDS011;27842;52.272;8.052;2022-08-14T09:58:49;13.85;;;6.22;;
40959;SDS011;27842;52.272;8.052;2022-08-14T10:01:16;14.68;;;6.45;;
40959;SDS011;27842;52.272;8.052;2022-08-14T10:06:20;12.38;;;6.13;;
40959;SDS011;27842;52.272;8.052;2022-08-14T10:08:56;14.02;;;5.90;;
40959;SDS011;27842;52.272;8.052;2022-08-14T10:11:29;13.82;;;6.20;;
40959;SDS011;27842;52.272;8.052;2022-08-14T10:14:10;12.07;;;5.85;;
40959;SDS011;27842;52.272;8.052;2022-08-14T10:16:43;12.25;;;6.13;;
40959;SDS011;27842;52.272;8.052;2022-08-14T10:19:13;12.55;;;6.10;;
40959;SDS011;27842;52.272;8.052;2022-08-14T10:21:42;13.68;;;6.32;;
40959;SDS011;27842;52.272;8.052;2022-08-14T10:24:24;14.07;;;6.18;;
40959;SDS011;27842;52.272;8.052;2022-08-14T10:26:54;12.55;;;6.00;;
40959;SDS011;27842;52.272;8.052;2022-08-14T10:29:29;12.13;;;5.88;;
40959;SDS011;27842;52.272;8.052;2022-08-14T10:31:57;13.30;;;6.55;;
40959;SDS011;27842;52.272;8.052;2022-08-14T10:34:29;14.10;;;6.15;;
40959;SDS011;27842;52.272;8.052;2022-08-14T10:37:01;11.65;;;6.10;;
40959;SDS011;27842;52.272;8.052;2022-08-14T10:39:37;13.93;;;6.10;;
40959;SDS011;27842;52.272;8.052;2022-08-14T10:42:08;13.45;;;6.30;;
40959;SDS011;27842;52.272;8.052;2022-08-14T10:44:36;13.23;;;5.95;;
40959;SDS011;27842;52.272;8.052;2022-08-14T10:47:04;11.63;;;5.97;;
40959;SDS011;27842;52.272;8.052;2022-08-14T10:49:33;10.52;;;5.50;;
40959;SDS011;27842;52.272;8.052;2022-08-14T10:52:18;12.48;;;6.47;;
40959;SDS011;27842;52.272;8.052;2022-08-14T10:54:45;12.23;;;6.00;;
40959;SDS011;27842;52.272;8.052;2022-08-14T10:57:16;14.38;;;6.18;;
40959;SDS011;27842;52.272;8.052;2022-08-14T10:59:46;12.30;;;6.20;;
40959;SDS011;27842;52.272;8.052;2022-08-14T11:05:05;14.10;;;6.35;;
40959;SDS011;27842;52.272;8.052;2022-08-14T11:07:35;13.05;;;6.25;;
40959;SDS011;27842;52.272;8.052;2022-08-14T11:10:13;12.02;;;5.72;;
40959;SDS011;27842;52.272;8.052;2022-08-14T11:15:12;12.85;;;6.30;;
40959;SDS011;27842;52.272;8.052;2022-08-14T11:17:43;13.63;;;6.18;;
40959;SDS011;27842;52.272;8.052;2022-08-14T11:20:13;14.18;;;6.50;;
40959;SDS011;27842;52.272;8.052;2022-08-14T11:22:43;15.30;;;6.65;;
40959;SDS011;27842;52.272;8.052;2022-08-14T11:25:11;13.70;;;6.28;;
40959;SDS011;27842;52.272;8.052;2022-08-14T11:27:42;13.63;;;6.45;;
40959;SDS011;27842;52.272;8.052;2022-08-14T11:30:10;12.40;;;5.97;;
40959;SDS011;27842;52.272;8.052;2022-08-14T11:32:38;13.52;;;6.20;;
40959;SDS011;27842;52.272;8.052;2022-08-14T11:35:10;13.48;;;5.90;;
40959;SDS011;27842;52.272;8.052;2022-08-14T11:37:37;12.02;;;5.72;;
40959;SDS011;27842;52.272;8.052;2022-08-14T11:40:15;13.07;;;5.93;;
40959;SDS011;27842;52.272;8.052;2022-08-14T11:42:43;13.95;;;6.13;;
40959;SDS011;27842;52.272;8.052;2022-08-14T11:45:13;10.82;;;5.63;;
40959;SDS011;27842;52.272;8.052;2022-08-14T11:47:40;14.15;;;6.53;;
40959;SDS011;27842;52.272;8.052;2022-08-14T11:50:16;12.45;;;5.60;;
40959;SDS011;27842;52.272;8.052;2022-08-14T11:52:43;13.05;;;5.50;;
40959;SDS011;27842;52.272;8.052;2022-08-14T11:55:11;12.13;;;5.70;;
40959;SDS011;27842;52.272;8.052;2022-08-14T11:57:39;11.63;;;5.30;;
40959;SDS011;27842;52.272;8.052;2022-08-14T12:00:07;11.65;;;5.30;;
40959;SDS011;27842;52.272;8.052;2022-08-14T12:02:48;13.82;;;6.22;;
40959;SDS011;27842;52.272;8.052;2022-08-14T12:05:32;10.38;;;5.15;;
40959;SDS011;27842;52.272;8.052;2022-08-14T12:08:00;11.95;;;5.57;;
40959;SDS011;27842;52.272;8.052;2022-08-14T12:10:31;12.00;;;5.50;;
40959;SDS011;27842;52.272;8.052;2022-08-14T12:12:58;11.63;;;5.80;;
40959;SDS011;27842;52.272;8.052;2022-08-14T12:15:34;12.05;;;5.05;;
40959;SDS011;27842;52.272;8.052;2022-08-14T12:18:00;11.48;;;5.50;;
40959;SDS011;27842;52.272;8.052;2022-08-14T12:20:36;11.05;;;5.63;;
40959;SDS011;27842;52.272;8.052;2022-08-14T12:23:04;10.52;;;5.30;;
40959;SDS011;27842;52.272;8.052;2022-08-14T12:28:00;13.48;;;5.75;;
40959;SDS011;27842;52.272;8.052;2022-08-14T12:30:33;13.10;;;5.55;;
40959;SDS011;27842;52.272;8.052;2022-08-14T12:33:04;10.95;;;5.32;;
40959;SDS011;27842;52.272;8.052;2022-08-14T12:35:39;14.38;;;5.63;;
40959;SDS011;27842;52.272;8.052;2022-08-14T12:38:08;12.02;;;5.60;;
40959;SDS011;27842;52.272;8.052;2022-08-14T12:40:45;11.93;;;6.05;;
40959;SDS011;27842;52.272;8.052;2022-08-14T12:43:18;11.30;;;5.70;;
40959;SDS011;27842;52.272;8.052;2022-08-14T12:45:46;10.55;;;5.10;;
40959;SDS011;27842;52.272;8.052;2022-08-14T12:48:14;11.80;;;5.60;;
40959;SDS011;27842;52.272;8.052;2022-08-14T12:50:43;11.77;;;5.60;;
40959;SDS011;27842;52.272;8.052;2022-08-14T12:53:09;11.73;;;5.57;;
40959;SDS011;27842;52.272;8.052;2022-08-14T12:55:37;11.87;;;5.43;;
40959;SDS011;27842;52.272;8.052;2022-08-14T12:58:04;10.73;;;5.37;;
40959;SDS011;27842;52.272;8.052;2022-08-14T13:00:32;13.37;;;6.00;;
40959;SDS011;27842;52.272;8.052;2022-08-14T13:02:59;9.15;;;5.07;;
40959;SDS011;27842;52.272;8.052;2022-08-14T13:05:26;11.15;;;5.50;;
40959;SDS011;27842;52.272;8.052;2022-08-14T13:07:57;11.48;;;5.38;;
40959;SDS011;27842;52.272;8.052;2022-08-14T13:12:55;15.95;;;5.25;;
40959;SDS011;27842;52.272;8.052;2022-08-14T13:15:22;12.18;;;5.25;;
40959;SDS011;27842;52.272;8.052;2022-08-14T13:17:54;11.55;;;5.40;;
40959;SDS011;27842;52.272;8.052;2022-08-14T13:20:22;11.77;;;5.57;;
40959;SDS011;27842;52.272;8.052;2022-08-14T13:22:49;11.20;;;5.03;;
40959;SDS011;27842;52.272;8.052;2022-08-14T13:25:16;10.10;;;5.03;;
40959;SDS011;27842;52.272;8.052;2022-08-14T13:27:45;10.95;;;5.25;;
40959;SDS011;27842;52.272;8.052;2022-08-14T13:30:16;10.68;;;4.93;;
40959;SDS011;27842;52.272;8.052;2022-08-14T13:32:44;10.73;;;5.20;;
40959;SDS011;27842;52.272;8.052;2022-08-14T13:35:10;9.82;;;5.10;;
40959;SDS011;27842;52.272;8.052;2022-08-14T13:37:38;10.85;;;4.90;;
40959;SDS011;27842;52.272;8.052;2022-08-14T13:40:05;11.40;;;5.18;;
40959;SDS011;27842;52.272;8.052;2022-08-14T13:42:31;9.90;;;4.97;;
40959;SDS011;27842;52.272;8.052;2022-08-14T13:44:58;11.30;;;5.03;;
40959;SDS011;27842;52.272;8.052;2022-08-14T13:47:26;11.18;;;5.15;;
40959;SDS011;27842;52.272;8.052;2022-08-14T13:49:54;9.10;;;4.80;;
40959;SDS011;27842;52.272;8.052;2022-08-14T13:54:49;7.55;;;4.47;;
40959;SDS011;27842;52.272;8.052;2022-08-14T13:57:18;9.65;;;4.65;;
40959;SDS011;27842;52.272;8.052;2022-08-14T13:59:45;12.63;;;5.40;;
40959;SDS011;27842;52.272;8.052;2022-08-14T14:02:12;10.48;;;5.00;;
40959;SDS011;27842;52.272;8.052;2022-08-14T14:04:41;11.15;;;5.32;;
40959;SDS011;27842;52.272;8.052;2022-08-14T14:07:09;9.63;;;4.65;;
40959;SDS011;27842;52.272;8.052;2022-08-14T14:09:38;10.50;;;4.65;;
40959;SDS011;27842;52.272;8.052;2022-08-14T14:12:09;10.80;;;5.05;;
40959;SDS011;27842;52.272;8.052;2022-08-14T14:14:35;14.77;;;5.20;;
40959;SDS011;27842;52.272;8.052;2022-08-14T14:17:03;11.82;;;5.07;;
40959;SDS011;27842;52.272;8.052;2022-08-14T14:19:30;10.38;;;4.82;;
40959;SDS011;27842;52.272;8.052;2022-08-14T14:22:00;10.55;;;4.90;;
40959;SDS011;27842;52.272;8.052;2022-08-14T14:24:27;9.10;;;4.38;;
40959;SDS011;27842;52.272;8.052;2022-08-14T14:26:53;7.70;;;4.40;;
40959;SDS011;27842;52.272;8.052;2022-08-14T14:29:25;11.05;;;4.63;;
40959;SDS011;27842;52.272;8.052;2022-08-14T14:31:52;9.63;;;4.55;;
40959;SDS011;27842;52.272;8.052;2022-08-14T14:34:18;9.30;;;4.68;;
40959;SDS011;27842;52.272;8.052;2022-08-14T14:36:48;8.43;;;4.32;;
40959;SDS011;27842;52.272;8.052;2022-08-14T14:39:15;10.13;;;4.53;;
40959;SDS011;27842;52.272;8.052;2022-08-14T14:41:41;9.45;;;4.40;;
40959;SDS011;27842;52.272;8.052;2022-08-14T14:44:10;10.18;;;5.07;;
40959;SDS011;27842;52.272;8.052;2022-08-14T14:46:37;9.47;;;4.07;;
40959;SDS011;27842;52.272;8.052;2022-08-14T14:49:06;11.32;;;4.97;;
40959;SDS011;27842;52.272;8.052;2022-08-14T14:51:38;10.25;;;4.80;;
40959;SDS011;27842;52.272;8.052;2022-08-14T14:54:08;9.18;;;4.57;;
40959;SDS011;27842;52.272;8.052;2022-08-14T14:56:36;8.50;;;4.63;;
40959;SDS011;27842;52.272;8.052;2022-08-14T14:59:05;9.32;;;4.53;;
40959;SDS011;27842;52.272;8.052;2022-08-14T15:01:33;9.40;;;4.45;;
40959;SDS011;27842;52.272;8.052;2022-08-14T15:03:59;9.43;;;4.70;;
40959;SDS011;27842;52.272;8.052;2022-08-14T15:08:53;9.27;;;4.65;;
40959;SDS011;27842;52.272;8.052;2022-08-14T15:11:19;10.05;;;4.35;;
40959;SDS011;27842;52.272;8.052;2022-08-14T15:13:46;10.13;;;4.32;;
40959;SDS011;27842;52.272;8.052;2022-08-14T15:16:12;9.75;;;4.45;;
40959;SDS011;27842;52.272;8.052;2022-08-14T15:18:38;7.82;;;4.47;;
40959;SDS011;27842;52.272;8.052;2022-08-14T15:21:04;7.20;;;4.13;;
40959;SDS011;27842;52.272;8.052;2022-08-14T15:23:30;8.27;;;4.43;;
40959;SDS011;27842;52.272;8.052;2022-08-14T15:25:57;8.75;;;4.55;;